Nearby METAR Reports

 

KSJC - San Jose, California, USA
Distance from station: NE 14km
Updated: 16/01/2018 10:53
Few Clouds
Few Clouds
 Wind from ESE
Wind: ESE 7 km/h
Temperature: 13°C
Dew Point: 9°C
Humidity: 77%
Barometer: 1021.7 hPa
Clouds: Few Clouds
Visibility: 16 km
Cloud details: Few Clouds 945 m
2018/01/16 08:53 KSJC 160853Z AUTO 12004KT 10SM FEW031 13/09 A3017 RMK AO2 SLP216 T01280094 50014 $
KNUQ - Moffett Nas/Mtn, California, USA
Distance from station: N 14km
Updated: 16/01/2018 10:56
Clear
Clear
 Wind from SE
Wind: SE 9 km/h
Temperature: 11°C
Dew Point: 10°C
Humidity: 94%
Barometer: 1021.7 hPa
Clouds: Clear
Visibility: 16 km
2018/01/16 08:56 KNUQ 160856Z 13005KT 10SM CLR 11/10 A3017 RMK AO2 SLP218 T01060100 50013 $
 
KPAO - Palo Alto, California, USA
Distance from station: NNW 23km
Updated: 16/01/2018 06:47
NOT Current
Partly cloudy
Partly cloudy
 Wind from calm
Wind: Calm
Temperature: 10°C
Dew Point: 10°C
Humidity: 100%
Barometer: 1020.3 hPa
Clouds: Partly cloudy
Visibility: 11 km
Cloud details: Partly cloudy 3658 m
2018/01/16 04:47 KPAO 160447Z 00000KT 7SM SCT120 10/10 A3013 RMK LAST
KRHV - San Jose/Reid, California, USA
Distance from station: ENE 19km
Updated: 16/01/2018 07:55
NOT Current
Mostly cloudy
Mostly cloudy
 Wind from calm
Wind: Calm
Temperature: 12°C
Dew Point: 10°C
Humidity: 88%
Barometer: 1020 hPa
Clouds: Mostly cloudy
Visibility: 16 km
Cloud details: Mostly cloudy 5182 m
2018/01/16 05:55 KRHV 160555Z 00000KT 10SM BKN170 12/10 A3012 RMK LAST
 
KOAK - Oakland, California, USA
Distance from station: NNW 50km
Updated: 16/01/2018 10:53
Overcast
Overcast
 Wind from ESE
Wind: ESE 9 km/h
Temperature: 13°C
Dew Point: 11°C
Humidity: 88%
Barometer: 1021.3 hPa
Clouds: Overcast
Visibility: 13 km
Cloud details: Overcast 488 m
2018/01/16 08:53 KOAK 160853Z 11005KT 8SM OVC016 13/11 A3016 RMK AO2 SLP214 T01280111 50015
KSQL - San Carlos Airpo, California, USA
Distance from station: NW 34km
Updated: 16/01/2018 10:55
Mostly cloudy
Mostly cloudy
 Wind from S
Wind: S 6 km/h
Temperature: 13°C
Dew Point: 11°C
Humidity: 88%
Barometer: 1021.3 hPa
Clouds: Mostly cloudy
Visibility: 16 km
Cloud details: Mostly cloudy 579 m
Mostly cloudy 792 m
2018/01/16 08:55 KSQL 160855Z AUTO 19003KT 10SM BKN019 BKN026 13/11 A3016 RMK AO2
 
KSFO - San Francisco, California, USA
Distance from station: NW 49km
Updated: 16/01/2018 10:56
Overcast
Overcast
 Wind from calm
Wind: Calm
Temperature: 14°C
Dew Point: 12°C
Humidity: 88%
Barometer: 1021.3 hPa
Clouds: Overcast
Visibility: 14 km
Cloud details: Few Clouds 396 m
Mostly cloudy 488 m
Overcast 671 m
2018/01/16 08:56 KSFO 160856Z 00000KT 9SM FEW013 BKN016 OVC022 14/12 A3016 RMK AO2 SLP212 T01390122 50013 $
KE16 - San Martin, California, USA
Distance from station: ESE 43km
Updated: 16/01/2018 10:50
Overcast
Overcast
 Wind from calm
Wind: Calm
Temperature: 10°C
Dew Point: 9°C
Humidity: 94%
Barometer: 1023 hPa
Clouds: Overcast
Visibility: 16 km
Cloud details: Overcast 1067 m
2018/01/16 08:50 KE16 160850Z AUTO 00000KT 10SM OVC035 10/09 A3021 RMK AO2
 
KWVI - Watsonville, California, USA
Distance from station: SSE 44km
Updated: 16/01/2018 10:53
Overcast
Overcast
 Wind from NNE
Wind: NNE 6 km/h
Temperature: 12°C
Dew Point: 11°C
Humidity: 94%
Barometer: 1022.4 hPa
Clouds: Overcast
Visibility: 11 km
Cloud details: Partly cloudy 183 m
Overcast 518 m
2018/01/16 08:53 KWVI 160853Z AUTO 02003KT 7SM SCT006 OVC017 12/11 A3019 RMK AO2 SLP224 T01170106 50015
KHAF - Half Moon Bay, California, USA
Distance from station: WNW 50km
Updated: 16/01/2018 10:55
Mist, Overcast
Mist, Overcast
 Wind from E
Wind: E 6 km/h
Temperature: 13°C
Dew Point: 13°C
Humidity: 100%
Barometer: 1020.7 hPa
Summary: Mist
Clouds: Overcast
Visibility: 5 km
Cloud details: Overcast 122 m
2018/01/16 08:55 KHAF 160855Z AUTO 10003KT 1 3/4SM BR OVC004 13/13 A3014 RMK AO2
 
KHWD - Hayward, California, USA
Distance from station: N 44km
Updated: 16/01/2018 10:54
Overcast
Overcast
 Wind from ESE
Wind: ESE 13 km/h
Temperature: 13°C
Dew Point: 9°C
Humidity: 77%
Barometer: 1021 hPa
Clouds: Overcast
Visibility: 13 km
Cloud details: Overcast 579 m
2018/01/16 08:54 KHWD 160854Z AUTO 12007KT 8SM OVC019 13/09 A3015 RMK AO2 SLP221 T01330089 50013
KLVK - Livermore, California, USA
Distance from station: NNE 51km
Updated: 16/01/2018 10:53
Mist, Overcast
Mist, Overcast
 Wind from ESE
Wind: ESE 7 km/h
Temperature: 11°C
Dew Point: 9°C
Humidity: 88%
Barometer: 1021.7 hPa
Summary: Mist
Clouds: Overcast
Visibility: 8 km
Cloud details: Mostly cloudy 762 m
Overcast 1036 m
2018/01/16 08:53 KLVK 160853Z AUTO 12004KT 5SM BR BKN025 OVC034 11/09 A3017 RMK AO2 RAB34E44 SLP214 P0000 60000 T01060089 50012